sensor_id;sensor_type;location;lat;lon;timestamp;temperature;humidity
21666;DHT22;10994;45.486;9.190;2022-08-21T00:01:16;27.90;99.90
21666;DHT22;10994;45.486;9.190;2022-08-21T00:03:43;27.90;99.90
21666;DHT22;10994;45.486;9.190;2022-08-21T00:06:09;27.90;99.90
21666;DHT22;10994;45.486;9.190;2022-08-21T00:08:35;27.90;99.90
21666;DHT22;10994;45.486;9.190;2022-08-21T00:11:00;27.90;99.90
21666;DHT22;10994;45.486;9.190;2022-08-21T00:13:26;27.90;99.90
21666;DHT22;10994;45.486;9.190;2022-08-21T00:15:52;27.90;99.90
21666;DHT22;10994;45.486;9.190;2022-08-21T00:18:18;27.90;99.90
21666;DHT22;10994;45.486;9.190;2022-08-21T00:20:45;27.80;99.90
21666;DHT22;10994;45.486;9.190;2022-08-21T00:23:11;27.80;99.90
21666;DHT22;10994;45.486;9.190;2022-08-21T00:25:37;27.80;99.90
21666;DHT22;10994;45.486;9.190;2022-08-21T00:28:04;27.80;99.90
21666;DHT22;10994;45.486;9.190;2022-08-21T00:30:30;27.70;99.90
21666;DHT22;10994;45.486;9.190;2022-08-21T00:32:57;27.70;99.90
21666;DHT22;10994;45.486;9.190;2022-08-21T00:35:27;27.70;99.90
21666;DHT22;10994;45.486;9.190;2022-08-21T00:37:53;27.70;99.90
21666;DHT22;10994;45.486;9.190;2022-08-21T00:40:27;27.70;99.90
21666;DHT22;10994;45.486;9.190;2022-08-21T00:42:53;27.70;99.90
21666;DHT22;10994;45.486;9.190;2022-08-21T00:45:19;27.70;99.90
21666;DHT22;10994;45.486;9.190;2022-08-21T00:47:45;27.60;99.90
21666;DHT22;10994;45.486;9.190;2022-08-21T00:50:11;27.50;99.90
21666;DHT22;10994;45.486;9.190;2022-08-21T00:52:38;27.60;99.90
21666;DHT22;10994;45.486;9.190;2022-08-21T00:55:07;27.60;99.90
21666;DHT22;10994;45.486;9.190;2022-08-21T00:57:44;27.60;99.90
21666;DHT22;10994;45.486;9.190;2022-08-21T01:00:14;27.60;99.90
21666;DHT22;10994;45.486;9.190;2022-08-21T01:02:40;27.60;99.90
21666;DHT22;10994;45.486;9.190;2022-08-21T01:05:07;27.70;99.90
21666;DHT22;10994;45.486;9.190;2022-08-21T01:07:33;27.60;99.90
21666;DHT22;10994;45.486;9.190;2022-08-21T01:09:59;27.60;99.90
21666;DHT22;10994;45.486;9.190;2022-08-21T01:12:25;27.60;99.90
21666;DHT22;10994;45.486;9.190;2022-08-21T01:14:51;27.60;99.90
21666;DHT22;10994;45.486;9.190;2022-08-21T01:17:17;27.60;99.90
21666;DHT22;10994;45.486;9.190;2022-08-21T01:19:44;27.40;99.90
21666;DHT22;10994;45.486;9.190;2022-08-21T01:22:10;27.30;99.90
21666;DHT22;10994;45.486;9.190;2022-08-21T01:24:36;27.40;99.90
21666;DHT22;10994;45.486;9.190;2022-08-21T01:27:02;27.40;99.90
21666;DHT22;10994;45.486;9.190;2022-08-21T01:32:15;27.40;99.90
21666;DHT22;10994;45.486;9.190;2022-08-21T01:34:45;27.40;99.90
21666;DHT22;10994;45.486;9.190;2022-08-21T01:37:12;27.40;99.90
21666;DHT22;10994;45.486;9.190;2022-08-21T01:39:38;27.30;99.90
21666;DHT22;10994;45.486;9.190;2022-08-21T01:42:04;27.20;99.90
21666;DHT22;10994;45.486;9.190;2022-08-21T01:44:30;27.20;99.90
21666;DHT22;10994;45.486;9.190;2022-08-21T01:46:58;27.20;99.90
21666;DHT22;10994;45.486;9.190;2022-08-21T01:49:24;27.30;99.90
21666;DHT22;10994;45.486;9.190;2022-08-21T01:51:50;27.30;99.90
21666;DHT22;10994;45.486;9.190;2022-08-21T01:54:16;27.30;99.90
21666;DHT22;10994;45.486;9.190;2022-08-21T01:56:46;27.30;99.90
21666;DHT22;10994;45.486;9.190;2022-08-21T01:59:12;27.30;99.90
21666;DHT22;10994;45.486;9.190;2022-08-21T02:01:38;27.30;99.90
21666;DHT22;10994;45.486;9.190;2022-08-21T02:04:06;27.20;99.90
21666;DHT22;10994;45.486;9.190;2022-08-21T02:06:33;27.00;99.90
21666;DHT22;10994;45.486;9.190;2022-08-21T02:08:58;26.90;99.90
21666;DHT22;10994;45.486;9.190;2022-08-21T02:11:24;26.80;99.90
21666;DHT22;10994;45.486;9.190;2022-08-21T02:13:50;26.70;99.90
21666;DHT22;10994;45.486;9.190;2022-08-21T02:16:16;26.70;99.90
21666;DHT22;10994;45.486;9.190;2022-08-21T02:18:42;26.80;99.90
21666;DHT22;10994;45.486;9.190;2022-08-21T02:21:08;26.70;99.90
21666;DHT22;10994;45.486;9.190;2022-08-21T02:23:34;26.70;99.90
21666;DHT22;10994;45.486;9.190;2022-08-21T02:26:02;26.60;99.90
21666;DHT22;10994;45.486;9.190;2022-08-21T02:28:28;26.50;99.90
21666;DHT22;10994;45.486;9.190;2022-08-21T02:30:55;26.40;99.90
21666;DHT22;10994;45.486;9.190;2022-08-21T02:33:22;26.40;99.90
21666;DHT22;10994;45.486;9.190;2022-08-21T02:35:49;26.50;99.90
21666;DHT22;10994;45.486;9.190;2022-08-21T02:38:22;26.50;99.90
21666;DHT22;10994;45.486;9.190;2022-08-21T02:40:50;26.60;99.90
21666;DHT22;10994;45.486;9.190;2022-08-21T02:43:18;26.60;99.90
21666;DHT22;10994;45.486;9.190;2022-08-21T02:45:44;26.60;99.90
21666;DHT22;10994;45.486;9.190;2022-08-21T02:48:15;26.50;99.90
21666;DHT22;10994;45.486;9.190;2022-08-21T02:50:47;26.50;99.90
21666;DHT22;10994;45.486;9.190;2022-08-21T02:53:14;26.30;99.90
21666;DHT22;10994;45.486;9.190;2022-08-21T02:55:46;26.30;99.90
21666;DHT22;10994;45.486;9.190;2022-08-21T02:58:14;26.30;99.90
21666;DHT22;10994;45.486;9.190;2022-08-21T03:00:41;26.30;99.90
21666;DHT22;10994;45.486;9.190;2022-08-21T03:03:06;26.30;99.90
21666;DHT22;10994;45.486;9.190;2022-08-21T03:05:34;26.30;99.90
21666;DHT22;10994;45.486;9.190;2022-08-21T03:08:02;26.30;99.90
21666;DHT22;10994;45.486;9.190;2022-08-21T03:10:28;26.20;99.90
21666;DHT22;10994;45.486;9.190;2022-08-21T03:12:56;26.20;99.90
21666;DHT22;10994;45.486;9.190;2022-08-21T03:15:22;26.20;99.90
21666;DHT22;10994;45.486;9.190;2022-08-21T03:17:51;26.20;99.90
21666;DHT22;10994;45.486;9.190;2022-08-21T03:20:22;26.30;99.90
21666;DHT22;10994;45.486;9.190;2022-08-21T03:22:49;26.30;99.90
21666;DHT22;10994;45.486;9.190;2022-08-21T03:25:15;26.20;99.90
21666;DHT22;10994;45.486;9.190;2022-08-21T03:27:41;26.20;99.90
21666;DHT22;10994;45.486;9.190;2022-08-21T03:30:07;26.10;99.90
21666;DHT22;10994;45.486;9.190;2022-08-21T03:32:34;26.20;99.90
21666;DHT22;10994;45.486;9.190;2022-08-21T03:35:00;26.20;99.90
21666;DHT22;10994;45.486;9.190;2022-08-21T03:37:27;26.20;99.90
21666;DHT22;10994;45.486;9.190;2022-08-21T03:39:53;26.20;99.90
21666;DHT22;10994;45.486;9.190;2022-08-21T03:42:18;26.20;99.90
21666;DHT22;10994;45.486;9.190;2022-08-21T03:44:44;26.20;99.90
21666;DHT22;10994;45.486;9.190;2022-08-21T03:47:10;26.20;99.90
21666;DHT22;10994;45.486;9.190;2022-08-21T03:49:37;26.10;99.90
21666;DHT22;10994;45.486;9.190;2022-08-21T03:52:03;26.00;99.90
21666;DHT22;10994;45.486;9.190;2022-08-21T03:54:29;26.00;99.90
21666;DHT22;10994;45.486;9.190;2022-08-21T03:56:55;26.00;99.90
21666;DHT22;10994;45.486;9.190;2022-08-21T03:59:21;25.90;99.90
21666;DHT22;10994;45.486;9.190;2022-08-21T04:01:55;25.90;99.90
21666;DHT22;10994;45.486;9.190;2022-08-21T04:04:21;25.90;99.90
21666;DHT22;10994;45.486;9.190;2022-08-21T04:06:47;25.90;99.90
21666;DHT22;10994;45.486;9.190;2022-08-21T04:09:12;25.90;99.90
21666;DHT22;10994;45.486;9.190;2022-08-21T04:11:38;25.90;99.90
21666;DHT22;10994;45.486;9.190;2022-08-21T04:14:04;25.90;99.90
21666;DHT22;10994;45.486;9.190;2022-08-21T04:16:30;25.90;99.90
21666;DHT22;10994;45.486;9.190;2022-08-21T04:18:56;25.90;99.90
21666;DHT22;10994;45.486;9.190;2022-08-21T04:21:22;25.90;99.90
21666;DHT22;10994;45.486;9.190;2022-08-21T04:23:49;25.90;99.90
21666;DHT22;10994;45.486;9.190;2022-08-21T04:26:14;25.90;99.90
21666;DHT22;10994;45.486;9.190;2022-08-21T04:28:41;25.80;99.90
21666;DHT22;10994;45.486;9.190;2022-08-21T04:31:08;25.80;99.90
21666;DHT22;10994;45.486;9.190;2022-08-21T04:33:34;25.70;99.90
21666;DHT22;10994;45.486;9.190;2022-08-21T04:36:00;25.60;99.90
21666;DHT22;10994;45.486;9.190;2022-08-21T04:38:27;25.50;99.90
21666;DHT22;10994;45.486;9.190;2022-08-21T04:40:53;25.50;99.90
21666;DHT22;10994;45.486;9.190;2022-08-21T04:43:19;25.40;99.90
21666;DHT22;10994;45.486;9.190;2022-08-21T04:45:47;25.50;99.90
21666;DHT22;10994;45.486;9.190;2022-08-21T04:48:16;25.50;99.90
21666;DHT22;10994;45.486;9.190;2022-08-21T04:53:50;25.50;99.90
21666;DHT22;10994;45.486;9.190;2022-08-21T04:56:20;25.70;99.90
21666;DHT22;10994;45.486;9.190;2022-08-21T04:58:47;25.60;99.90
21666;DHT22;10994;45.486;9.190;2022-08-21T05:01:18;25.50;99.90
21666;DHT22;10994;45.486;9.190;2022-08-21T05:03:45;25.50;99.90
21666;DHT22;10994;45.486;9.190;2022-08-21T05:06:13;25.50;99.90
21666;DHT22;10994;45.486;9.190;2022-08-21T05:08:41;25.50;99.90
21666;DHT22;10994;45.486;9.190;2022-08-21T05:11:09;25.50;99.90
21666;DHT22;10994;45.486;9.190;2022-08-21T05:13:35;25.50;99.90
21666;DHT22;10994;45.486;9.190;2022-08-21T05:16:01;25.60;99.90
21666;DHT22;10994;45.486;9.190;2022-08-21T05:18:27;25.60;99.90
21666;DHT22;10994;45.486;9.190;2022-08-21T05:20:53;25.60;99.90
21666;DHT22;10994;45.486;9.190;2022-08-21T05:23:18;25.60;99.90
21666;DHT22;10994;45.486;9.190;2022-08-21T05:25:44;25.60;99.90
21666;DHT22;10994;45.486;9.190;2022-08-21T05:28:10;25.70;99.90
21666;DHT22;10994;45.486;9.190;2022-08-21T05:30:36;25.70;99.90
21666;DHT22;10994;45.486;9.190;2022-08-21T05:33:04;25.80;99.90
21666;DHT22;10994;45.486;9.190;2022-08-21T05:35:30;25.80;99.90
21666;DHT22;10994;45.486;9.190;2022-08-21T05:37:56;25.80;99.90
21666;DHT22;10994;45.486;9.190;2022-08-21T05:40:22;25.70;99.90
21666;DHT22;10994;45.486;9.190;2022-08-21T05:42:50;25.70;99.90
21666;DHT22;10994;45.486;9.190;2022-08-21T05:45:16;25.70;99.90
21666;DHT22;10994;45.486;9.190;2022-08-21T05:47:42;25.80;99.90
21666;DHT22;10994;45.486;9.190;2022-08-21T05:50:08;25.80;99.90
21666;DHT22;10994;45.486;9.190;2022-08-21T05:52:34;25.80;99.90
21666;DHT22;10994;45.486;9.190;2022-08-21T05:55:03;25.80;99.90
21666;DHT22;10994;45.486;9.190;2022-08-21T05:57:34;25.80;99.90
21666;DHT22;10994;45.486;9.190;2022-08-21T06:00:00;25.90;99.90
21666;DHT22;10994;45.486;9.190;2022-08-21T06:02:26;25.90;99.90
21666;DHT22;10994;45.486;9.190;2022-08-21T06:04:56;26.00;99.90
21666;DHT22;10994;45.486;9.190;2022-08-21T06:07:27;26.10;99.90
21666;DHT22;10994;45.486;9.190;2022-08-21T06:09:56;26.30;99.90
21666;DHT22;10994;45.486;9.190;2022-08-21T06:12:26;26.40;99.90
21666;DHT22;10994;45.486;9.190;2022-08-21T06:14:54;26.40;99.90
21666;DHT22;10994;45.486;9.190;2022-08-21T06:17:20;26.50;99.90
21666;DHT22;10994;45.486;9.190;2022-08-21T06:19:50;26.60;99.90
21666;DHT22;10994;45.486;9.190;2022-08-21T06:22:16;26.60;99.90
21666;DHT22;10994;45.486;9.190;2022-08-21T06:24:42;26.60;99.90
21666;DHT22;10994;45.486;9.190;2022-08-21T06:27:08;26.60;99.90
21666;DHT22;10994;45.486;9.190;2022-08-21T06:29:36;26.60;99.90
21666;DHT22;10994;45.486;9.190;2022-08-21T06:32:03;26.70;99.90
21666;DHT22;10994;45.486;9.190;2022-08-21T06:34:29;26.70;99.90
21666;DHT22;10994;45.486;9.190;2022-08-21T06:36:55;26.80;99.90
21666;DHT22;10994;45.486;9.190;2022-08-21T06:39:21;26.70;99.90
21666;DHT22;10994;45.486;9.190;2022-08-21T06:41:47;26.80;99.90
21666;DHT22;10994;45.486;9.190;2022-08-21T06:44:16;26.90;99.90
21666;DHT22;10994;45.486;9.190;2022-08-21T06:46:42;27.10;99.90
21666;DHT22;10994;45.486;9.190;2022-08-21T06:49:07;27.30;99.90
21666;DHT22;10994;45.486;9.190;2022-08-21T06:51:33;27.40;99.90
21666;DHT22;10994;45.486;9.190;2022-08-21T06:53:58;27.60;99.90
21666;DHT22;10994;45.486;9.190;2022-08-21T06:56:24;27.70;99.90
21666;DHT22;10994;45.486;9.190;2022-08-21T06:58:50;27.80;99.90
21666;DHT22;10994;45.486;9.190;2022-08-21T07:01:15;27.80;99.90
21666;DHT22;10994;45.486;9.190;2022-08-21T07:03:42;27.90;99.90
21666;DHT22;10994;45.486;9.190;2022-08-21T07:06:10;27.90;99.90
21666;DHT22;10994;45.486;9.190;2022-08-21T07:08:37;27.80;99.90
21666;DHT22;10994;45.486;9.190;2022-08-21T07:11:09;27.80;99.90
21666;DHT22;10994;45.486;9.190;2022-08-21T07:13:36;27.90;99.90
21666;DHT22;10994;45.486;9.190;2022-08-21T07:16:02;27.90;99.90
21666;DHT22;10994;45.486;9.190;2022-08-21T07:18:27;27.80;99.90
21666;DHT22;10994;45.486;9.190;2022-08-21T07:20:54;27.80;99.90
21666;DHT22;10994;45.486;9.190;2022-08-21T07:23:28;27.80;99.90
21666;DHT22;10994;45.486;9.190;2022-08-21T07:25:54;27.90;99.90
21666;DHT22;10994;45.486;9.190;2022-08-21T07:28:20;28.00;99.90
21666;DHT22;10994;45.486;9.190;2022-08-21T07:30:50;28.00;99.90
21666;DHT22;10994;45.486;9.190;2022-08-21T07:33:16;27.90;99.90
21666;DHT22;10994;45.486;9.190;2022-08-21T07:35:42;27.90;99.90
21666;DHT22;10994;45.486;9.190;2022-08-21T07:38:08;28.00;99.90
21666;DHT22;10994;45.486;9.190;2022-08-21T07:40:33;28.20;99.90
21666;DHT22;10994;45.486;9.190;2022-08-21T07:42:59;28.40;99.90
21666;DHT22;10994;45.486;9.190;2022-08-21T07:45:25;28.50;99.90
21666;DHT22;10994;45.486;9.190;2022-08-21T07:47:51;28.60;99.90
21666;DHT22;10994;45.486;9.190;2022-08-21T07:50:18;28.50;99.90
21666;DHT22;10994;45.486;9.190;2022-08-21T07:52:44;28.60;99.90
21666;DHT22;10994;45.486;9.190;2022-08-21T07:55:12;28.70;99.90
21666;DHT22;10994;45.486;9.190;2022-08-21T07:57:38;28.90;99.90
21666;DHT22;10994;45.486;9.190;2022-08-21T08:00:08;28.80;99.90
21666;DHT22;10994;45.486;9.190;2022-08-21T08:02:37;28.40;99.90
21666;DHT22;10994;45.486;9.190;2022-08-21T08:05:09;28.50;99.90
21666;DHT22;10994;45.486;9.190;2022-08-21T08:07:35;28.50;99.90
21666;DHT22;10994;45.486;9.190;2022-08-21T08:10:02;28.60;99.90
21666;DHT22;10994;45.486;9.190;2022-08-21T08:12:28;28.60;99.90
21666;DHT22;10994;45.486;9.190;2022-08-21T08:14:58;28.70;99.90
21666;DHT22;10994;45.486;9.190;2022-08-21T08:17:24;28.90;99.90
21666;DHT22;10994;45.486;9.190;2022-08-21T08:19:51;28.70;99.90
21666;DHT22;10994;45.486;9.190;2022-08-21T08:22:19;28.50;99.90
21666;DHT22;10994;45.486;9.190;2022-08-21T08:24:46;28.30;99.90
21666;DHT22;10994;45.486;9.190;2022-08-21T08:27:12;28.30;99.90
21666;DHT22;10994;45.486;9.190;2022-08-21T08:29:38;28.20;99.90
21666;DHT22;10994;45.486;9.190;2022-08-21T08:32:04;28.20;99.90
21666;DHT22;10994;45.486;9.190;2022-08-21T08:34:33;28.10;99.90
21666;DHT22;10994;45.486;9.190;2022-08-21T08:36:59;28.10;99.90
21666;DHT22;10994;45.486;9.190;2022-08-21T08:39:25;28.20;99.90
21666;DHT22;10994;45.486;9.190;2022-08-21T08:42:03;28.20;99.90
21666;DHT22;10994;45.486;9.190;2022-08-21T08:44:30;28.30;99.90
21666;DHT22;10994;45.486;9.190;2022-08-21T08:46:56;28.30;99.90
21666;DHT22;10994;45.486;9.190;2022-08-21T08:52:26;28.20;99.90
21666;DHT22;10994;45.486;9.190;2022-08-21T08:55:10;28.30;99.90
21666;DHT22;10994;45.486;9.190;2022-08-21T08:57:38;28.30;99.90
21666;DHT22;10994;45.486;9.190;2022-08-21T09:00:08;28.20;99.90
21666;DHT22;10994;45.486;9.190;2022-08-21T09:02:38;28.20;99.90
21666;DHT22;10994;45.486;9.190;2022-08-21T09:05:05;28.30;99.90
21666;DHT22;10994;45.486;9.190;2022-08-21T09:08:05;28.30;99.90
21666;DHT22;10994;45.486;9.190;2022-08-21T09:19:21;28.40;99.90
21666;DHT22;10994;45.486;9.190;2022-08-21T09:21:57;28.50;99.90
21666;DHT22;10994;45.486;9.190;2022-08-21T09:24:50;28.60;99.90
21666;DHT22;10994;45.486;9.190;2022-08-21T09:27:18;28.80;99.90
21666;DHT22;10994;45.486;9.190;2022-08-21T09:29:46;28.90;99.90
21666;DHT22;10994;45.486;9.190;2022-08-21T09:35:17;29.00;99.90
21666;DHT22;10994;45.486;9.190;2022-08-21T09:37:57;28.90;99.90
21666;DHT22;10994;45.486;9.190;2022-08-21T09:40:41;28.70;99.90
21666;DHT22;10994;45.486;9.190;2022-08-21T09:45:40;28.50;99.90
21666;DHT22;10994;45.486;9.190;2022-08-21T09:50:37;28.60;99.90
21666;DHT22;10994;45.486;9.190;2022-08-21T09:53:04;28.70;99.90
21666;DHT22;10994;45.486;9.190;2022-08-21T09:55:39;28.70;99.90
21666;DHT22;10994;45.486;9.190;2022-08-21T09:58:34;28.70;99.90
21666;DHT22;10994;45.486;9.190;2022-08-21T10:01:03;28.70;99.90
21666;DHT22;10994;45.486;9.190;2022-08-21T10:03:29;28.70;99.90
21666;DHT22;10994;45.486;9.190;2022-08-21T10:06:04;28.70;99.90
21666;DHT22;10994;45.486;9.190;2022-08-21T10:08:32;28.80;99.90
21666;DHT22;10994;45.486;9.190;2022-08-21T10:11:06;29.00;99.90
21666;DHT22;10994;45.486;9.190;2022-08-21T10:13:47;29.20;99.90
21666;DHT22;10994;45.486;9.190;2022-08-21T10:25:16;28.90;99.90
21666;DHT22;10994;45.486;9.190;2022-08-21T10:28:08;28.90;99.90
21666;DHT22;10994;45.486;9.190;2022-08-21T10:30:52;29.10;99.90
21666;DHT22;10994;45.486;9.190;2022-08-21T10:36:39;29.20;99.90
21666;DHT22;10994;45.486;9.190;2022-08-21T10:39:31;29.20;99.90
21666;DHT22;10994;45.486;9.190;2022-08-21T10:42:03;29.40;99.90
21666;DHT22;10994;45.486;9.190;2022-08-21T10:47:17;29.50;99.90
21666;DHT22;10994;45.486;9.190;2022-08-21T10:55:12;29.40;99.90
21666;DHT22;10994;45.486;9.190;2022-08-21T10:57:52;29.40;99.90
21666;DHT22;10994;45.486;9.190;2022-08-21T11:00:30;29.40;99.90
21666;DHT22;10994;45.486;9.190;2022-08-21T11:05:53;29.30;99.90
21666;DHT22;10994;45.486;9.190;2022-08-21T11:08:37;29.50;99.90
21666;DHT22;10994;45.486;9.190;2022-08-21T11:11:04;29.40;99.90
21666;DHT22;10994;45.486;9.190;2022-08-21T11:13:42;29.40;99.90
21666;DHT22;10994;45.486;9.190;2022-08-21T11:21:38;29.40;99.90
21666;DHT22;10994;45.486;9.190;2022-08-21T11:26:53;29.50;99.90
21666;DHT22;10994;45.486;9.190;2022-08-21T11:29:38;29.70;99.90
21666;DHT22;10994;45.486;9.190;2022-08-21T11:43:16;29.80;99.90
21666;DHT22;10994;45.486;9.190;2022-08-21T11:45:55;29.80;99.90
21666;DHT22;10994;45.486;9.190;2022-08-21T11:51:41;30.10;99.90
21666;DHT22;10994;45.486;9.190;2022-08-21T11:54:37;30.20;99.90
21666;DHT22;10994;45.486;9.190;2022-08-21T11:57:24;30.20;99.90
21666;DHT22;10994;45.486;9.190;2022-08-21T12:00:15;30.20;99.90
21666;DHT22;10994;45.486;9.190;2022-08-21T12:02:54;30.30;99.90
21666;DHT22;10994;45.486;9.190;2022-08-21T12:05:32;30.50;99.90
21666;DHT22;10994;45.486;9.190;2022-08-21T12:08:15;30.80;99.90
21666;DHT22;10994;45.486;9.190;2022-08-21T12:14:00;31.40;99.90
21666;DHT22;10994;45.486;9.190;2022-08-21T12:16:48;31.70;99.90
21666;DHT22;10994;45.486;9.190;2022-08-21T12:19:28;32.10;99.90
21666;DHT22;10994;45.486;9.190;2022-08-21T12:26:53;32.50;99.90
21666;DHT22;10994;45.486;9.190;2022-08-21T12:29:23;32.80;99.90
21666;DHT22;10994;45.486;9.190;2022-08-21T12:31:52;32.90;99.90
21666;DHT22;10994;45.486;9.190;2022-08-21T12:34:18;32.90;99.90
21666;DHT22;10994;45.486;9.190;2022-08-21T12:37:05;33.10;99.90
21666;DHT22;10994;45.486;9.190;2022-08-21T12:39:44;33.40;99.40
21666;DHT22;10994;45.486;9.190;2022-08-21T12:42:18;33.50;99.20
21666;DHT22;10994;45.486;9.190;2022-08-21T12:44:58;33.90;98.50
21666;DHT22;10994;45.486;9.190;2022-08-21T12:50:08;34.40;97.50
21666;DHT22;10994;45.486;9.190;2022-08-21T12:52:40;34.40;96.80
21666;DHT22;10994;45.486;9.190;2022-08-21T12:55:11;34.60;97.20
21666;DHT22;10994;45.486;9.190;2022-08-21T12:57:40;34.80;97.20
21666;DHT22;10994;45.486;9.190;2022-08-21T13:00:10;34.80;96.20
21666;DHT22;10994;45.486;9.190;2022-08-21T13:02:51;34.90;96.20
21666;DHT22;10994;45.486;9.190;2022-08-21T13:05:35;34.80;94.80
21666;DHT22;10994;45.486;9.190;2022-08-21T13:08:07;34.50;93.00
21666;DHT22;10994;45.486;9.190;2022-08-21T13:10:34;34.10;94.50
21666;DHT22;10994;45.486;9.190;2022-08-21T13:13:08;33.90;95.20
21666;DHT22;10994;45.486;9.190;2022-08-21T13:15:38;34.00;95.10
21666;DHT22;10994;45.486;9.190;2022-08-21T13:18:05;34.00;95.50
21666;DHT22;10994;45.486;9.190;2022-08-21T13:20:40;34.10;95.50
21666;DHT22;10994;45.486;9.190;2022-08-21T13:23:26;34.10;95.20
21666;DHT22;10994;45.486;9.190;2022-08-21T13:25:53;34.00;93.60
21666;DHT22;10994;45.486;9.190;2022-08-21T13:28:19;34.00;95.90
21666;DHT22;10994;45.486;9.190;2022-08-21T13:30:53;33.90;94.80
21666;DHT22;10994;45.486;9.190;2022-08-21T13:33:22;33.80;94.70
21666;DHT22;10994;45.486;9.190;2022-08-21T13:38:29;33.90;93.00
21666;DHT22;10994;45.486;9.190;2022-08-21T13:41:14;33.90;93.70
21666;DHT22;10994;45.486;9.190;2022-08-21T13:43:48;33.80;94.40
21666;DHT22;10994;45.486;9.190;2022-08-21T13:46:14;33.90;94.20
21666;DHT22;10994;45.486;9.190;2022-08-21T13:48:41;33.80;94.00
21666;DHT22;10994;45.486;9.190;2022-08-21T13:51:08;33.80;94.80
21666;DHT22;10994;45.486;9.190;2022-08-21T13:53:45;33.90;95.20
21666;DHT22;10994;45.486;9.190;2022-08-21T13:56:33;34.10;94.30
21666;DHT22;10994;45.486;9.190;2022-08-21T13:59:06;34.20;94.00
21666;DHT22;10994;45.486;9.190;2022-08-21T14:01:48;34.30;93.40
21666;DHT22;10994;45.486;9.190;2022-08-21T14:04:26;34.40;92.80
21666;DHT22;10994;45.486;9.190;2022-08-21T14:06:53;34.40;92.30
21666;DHT22;10994;45.486;9.190;2022-08-21T14:09:40;34.60;93.90
21666;DHT22;10994;45.486;9.190;2022-08-21T14:12:19;34.60;91.30
21666;DHT22;10994;45.486;9.190;2022-08-21T14:14:58;34.30;92.70
21666;DHT22;10994;45.486;9.190;2022-08-21T14:17:35;34.40;93.70
21666;DHT22;10994;45.486;9.190;2022-08-21T14:20:09;34.30;91.40
21666;DHT22;10994;45.486;9.190;2022-08-21T14:22:46;34.10;92.50
21666;DHT22;10994;45.486;9.190;2022-08-21T14:30:37;34.50;92.70
21666;DHT22;10994;45.486;9.190;2022-08-21T14:33:04;34.30;91.50
21666;DHT22;10994;45.486;9.190;2022-08-21T14:35:40;33.40;92.80
21666;DHT22;10994;45.486;9.190;2022-08-21T14:38:17;33.00;93.40
21666;DHT22;10994;45.486;9.190;2022-08-21T14:40:47;33.10;92.50
21666;DHT22;10994;45.486;9.190;2022-08-21T14:43:14;33.30;93.20
21666;DHT22;10994;45.486;9.190;2022-08-21T14:45:43;33.20;93.30
21666;DHT22;10994;45.486;9.190;2022-08-21T14:48:09;33.10;92.50
21666;DHT22;10994;45.486;9.190;2022-08-21T14:50:35;33.30;92.80
21666;DHT22;10994;45.486;9.190;2022-08-21T14:53:01;33.30;93.00
21666;DHT22;10994;45.486;9.190;2022-08-21T14:55:31;33.50;92.40
21666;DHT22;10994;45.486;9.190;2022-08-21T14:58:15;33.60;92.60
21666;DHT22;10994;45.486;9.190;2022-08-21T15:00:44;33.40;91.80
21666;DHT22;10994;45.486;9.190;2022-08-21T15:03:13;32.80;92.30
21666;DHT22;10994;45.486;9.190;2022-08-21T15:05:39;33.00;92.80
21666;DHT22;10994;45.486;9.190;2022-08-21T15:08:05;33.30;93.40
21666;DHT22;10994;45.486;9.190;2022-08-21T15:10:33;33.50;93.30
21666;DHT22;10994;45.486;9.190;2022-08-21T15:13:02;33.70;92.40
21666;DHT22;10994;45.486;9.190;2022-08-21T15:15:39;33.70;92.00
21666;DHT22;10994;45.486;9.190;2022-08-21T15:18:05;33.60;92.20
21666;DHT22;10994;45.486;9.190;2022-08-21T15:20:31;33.60;92.20
21666;DHT22;10994;45.486;9.190;2022-08-21T15:22:57;33.50;91.80
21666;DHT22;10994;45.486;9.190;2022-08-21T15:25:23;33.70;92.00
21666;DHT22;10994;45.486;9.190;2022-08-21T15:27:48;33.50;91.20
21666;DHT22;10994;45.486;9.190;2022-08-21T15:30:14;33.50;92.20
21666;DHT22;10994;45.486;9.190;2022-08-21T15:32:40;33.40;91.80
21666;DHT22;10994;45.486;9.190;2022-08-21T15:35:07;33.10;92.20
21666;DHT22;10994;45.486;9.190;2022-08-21T15:37:33;33.00;92.50
21666;DHT22;10994;45.486;9.190;2022-08-21T15:40:03;33.10;92.70
21666;DHT22;10994;45.486;9.190;2022-08-21T15:42:31;33.10;91.80
21666;DHT22;10994;45.486;9.190;2022-08-21T15:44:57;33.00;92.60
21666;DHT22;10994;45.486;9.190;2022-08-21T15:47:31;32.90;92.30
21666;DHT22;10994;45.486;9.190;2022-08-21T15:49:58;32.90;92.80
21666;DHT22;10994;45.486;9.190;2022-08-21T15:52:24;32.80;92.00
21666;DHT22;10994;45.486;9.190;2022-08-21T15:54:50;32.90;92.00
21666;DHT22;10994;45.486;9.190;2022-08-21T15:57:22;33.00;93.00
21666;DHT22;10994;45.486;9.190;2022-08-21T15:59:51;33.10;92.70
21666;DHT22;10994;45.486;9.190;2022-08-21T16:02:24;33.20;92.90
21666;DHT22;10994;45.486;9.190;2022-08-21T16:04:52;33.20;93.30
21666;DHT22;10994;45.486;9.190;2022-08-21T16:07:17;33.30;93.30
21666;DHT22;10994;45.486;9.190;2022-08-21T16:09:43;33.40;93.00
21666;DHT22;10994;45.486;9.190;2022-08-21T16:12:12;33.20;92.70
21666;DHT22;10994;45.486;9.190;2022-08-21T16:14:39;33.10;92.70
21666;DHT22;10994;45.486;9.190;2022-08-21T16:17:06;32.80;92.50
21666;DHT22;10994;45.486;9.190;2022-08-21T16:19:32;32.60;92.50
21666;DHT22;10994;45.486;9.190;2022-08-21T16:21:58;32.60;92.90
21666;DHT22;10994;45.486;9.190;2022-08-21T16:24:24;32.50;93.20
21666;DHT22;10994;45.486;9.190;2022-08-21T16:26:50;32.60;93.40
21666;DHT22;10994;45.486;9.190;2022-08-21T16:29:19;32.60;93.30
21666;DHT22;10994;45.486;9.190;2022-08-21T16:31:47;32.50;92.70
21666;DHT22;10994;45.486;9.190;2022-08-21T16:34:18;32.70;92.60
21666;DHT22;10994;45.486;9.190;2022-08-21T16:36:45;32.70;92.80
21666;DHT22;10994;45.486;9.190;2022-08-21T16:39:11;32.60;91.80
21666;DHT22;10994;45.486;9.190;2022-08-21T16:41:38;32.60;92.30
21666;DHT22;10994;45.486;9.190;2022-08-21T16:44:05;32.70;92.00
21666;DHT22;10994;45.486;9.190;2022-08-21T16:46:34;32.50;92.50
21666;DHT22;10994;45.486;9.190;2022-08-21T16:49:01;32.50;92.40
21666;DHT22;10994;45.486;9.190;2022-08-21T16:51:27;32.30;92.70
21666;DHT22;10994;45.486;9.190;2022-08-21T16:53:53;32.30;92.90
21666;DHT22;10994;45.486;9.190;2022-08-21T16:56:19;32.10;93.00
21666;DHT22;10994;45.486;9.190;2022-08-21T16:58:47;32.00;92.80
21666;DHT22;10994;45.486;9.190;2022-08-21T17:01:18;31.80;93.00
21666;DHT22;10994;45.486;9.190;2022-08-21T17:03:46;31.90;93.70
21666;DHT22;10994;45.486;9.190;2022-08-21T17:06:14;32.00;93.60
21666;DHT22;10994;45.486;9.190;2022-08-21T17:08:41;32.00;94.10
21666;DHT22;10994;45.486;9.190;2022-08-21T17:11:24;32.10;94.30
21666;DHT22;10994;45.486;9.190;2022-08-21T17:13:51;32.10;94.40